sensor_id;sensor_type;location;lat;lon;timestamp;temperature;humidity
29551;DHT22;16488;52.396;10.696;2023-04-16T00:00:06;9.30;99.90
29551;DHT22;16488;52.396;10.696;2023-04-16T00:02:32;9.30;99.90
29551;DHT22;16488;52.396;10.696;2023-04-16T00:04:58;9.30;99.90
29551;DHT22;16488;52.396;10.696;2023-04-16T00:07:23;9.30;99.90
29551;DHT22;16488;52.396;10.696;2023-04-16T00:09:49;9.20;99.90
29551;DHT22;16488;52.396;10.696;2023-04-16T00:12:15;9.20;99.90
29551;DHT22;16488;52.396;10.696;2023-04-16T00:14:40;9.10;99.90
29551;DHT22;16488;52.396;10.696;2023-04-16T00:17:08;9.00;99.90
29551;DHT22;16488;52.396;10.696;2023-04-16T00:19:34;8.90;99.90
29551;DHT22;16488;52.396;10.696;2023-04-16T00:21:59;9.00;99.90
29551;DHT22;16488;52.396;10.696;2023-04-16T00:24:25;8.90;99.90
29551;DHT22;16488;52.396;10.696;2023-04-16T00:26:50;8.90;99.90
29551;DHT22;16488;52.396;10.696;2023-04-16T00:29:16;8.90;99.90
29551;DHT22;16488;52.396;10.696;2023-04-16T00:31:42;8.80;99.90
29551;DHT22;16488;52.396;10.696;2023-04-16T00:34:07;8.80;99.90
29551;DHT22;16488;52.396;10.696;2023-04-16T00:36:33;8.70;99.90
29551;DHT22;16488;52.396;10.696;2023-04-16T00:38:59;8.70;99.90
29551;DHT22;16488;52.396;10.696;2023-04-16T00:41:24;8.80;99.90
29551;DHT22;16488;52.396;10.696;2023-04-16T00:43:51;8.70;99.90
29551;DHT22;16488;52.396;10.696;2023-04-16T00:46:18;8.70;99.90
29551;DHT22;16488;52.396;10.696;2023-04-16T00:48:44;8.60;99.90
29551;DHT22;16488;52.396;10.696;2023-04-16T00:51:10;8.60;99.90
29551;DHT22;16488;52.396;10.696;2023-04-16T00:53:36;8.50;99.90
29551;DHT22;16488;52.396;10.696;2023-04-16T00:56:04;8.50;99.90
29551;DHT22;16488;52.396;10.696;2023-04-16T00:58:30;8.50;99.90
29551;DHT22;16488;52.396;10.696;2023-04-16T01:00:56;8.40;99.90
29551;DHT22;16488;52.396;10.696;2023-04-16T01:03:23;8.40;99.90
29551;DHT22;16488;52.396;10.696;2023-04-16T01:05:50;8.40;99.90
29551;DHT22;16488;52.396;10.696;2023-04-16T01:08:19;8.40;99.90
29551;DHT22;16488;52.396;10.696;2023-04-16T01:10:45;8.30;99.90
29551;DHT22;16488;52.396;10.696;2023-04-16T01:13:10;8.30;99.90
29551;DHT22;16488;52.396;10.696;2023-04-16T01:15:36;8.30;99.90
29551;DHT22;16488;52.396;10.696;2023-04-16T01:18:02;8.30;99.90
29551;DHT22;16488;52.396;10.696;2023-04-16T01:20:37;8.30;99.90
29551;DHT22;16488;52.396;10.696;2023-04-16T01:23:02;8.20;99.90
29551;DHT22;16488;52.396;10.696;2023-04-16T01:25:28;8.20;99.90
29551;DHT22;16488;52.396;10.696;2023-04-16T01:27:53;8.20;99.90
29551;DHT22;16488;52.396;10.696;2023-04-16T01:30:21;8.20;99.90
29551;DHT22;16488;52.396;10.696;2023-04-16T01:32:47;8.20;99.90
29551;DHT22;16488;52.396;10.696;2023-04-16T01:35:12;8.10;99.90
29551;DHT22;16488;52.396;10.696;2023-04-16T01:37:38;8.10;99.90
29551;DHT22;16488;52.396;10.696;2023-04-16T01:40:04;8.10;99.90
29551;DHT22;16488;52.396;10.696;2023-04-16T01:42:30;8.10;99.90
29551;DHT22;16488;52.396;10.696;2023-04-16T01:44:56;8.10;99.90
29551;DHT22;16488;52.396;10.696;2023-04-16T01:47:21;8.10;99.90
29551;DHT22;16488;52.396;10.696;2023-04-16T01:49:47;8.00;99.90
29551;DHT22;16488;52.396;10.696;2023-04-16T01:52:13;8.00;99.90
29551;DHT22;16488;52.396;10.696;2023-04-16T01:54:38;8.00;99.90
29551;DHT22;16488;52.396;10.696;2023-04-16T01:57:04;8.00;99.90
29551;DHT22;16488;52.396;10.696;2023-04-16T01:59:29;8.00;99.90
29551;DHT22;16488;52.396;10.696;2023-04-16T02:01:55;8.00;99.90
29551;DHT22;16488;52.396;10.696;2023-04-16T02:04:21;8.00;99.90
29551;DHT22;16488;52.396;10.696;2023-04-16T02:06:47;7.90;99.90
29551;DHT22;16488;52.396;10.696;2023-04-16T02:09:12;7.90;99.90
29551;DHT22;16488;52.396;10.696;2023-04-16T02:11:38;7.90;99.90
29551;DHT22;16488;52.396;10.696;2023-04-16T02:14:04;7.90;99.90
29551;DHT22;16488;52.396;10.696;2023-04-16T02:16:29;7.90;99.90
29551;DHT22;16488;52.396;10.696;2023-04-16T02:18:55;7.90;99.90
29551;DHT22;16488;52.396;10.696;2023-04-16T02:21:20;7.90;99.90
29551;DHT22;16488;52.396;10.696;2023-04-16T02:23:46;7.90;99.90
29551;DHT22;16488;52.396;10.696;2023-04-16T02:26:15;7.90;99.90
29551;DHT22;16488;52.396;10.696;2023-04-16T02:28:41;7.90;99.90
29551;DHT22;16488;52.396;10.696;2023-04-16T02:31:07;7.90;99.90
29551;DHT22;16488;52.396;10.696;2023-04-16T02:33:32;7.90;99.90
29551;DHT22;16488;52.396;10.696;2023-04-16T02:35:58;7.90;99.90
29551;DHT22;16488;52.396;10.696;2023-04-16T02:38:24;7.80;99.90
29551;DHT22;16488;52.396;10.696;2023-04-16T02:40:49;7.90;99.90
29551;DHT22;16488;52.396;10.696;2023-04-16T02:43:15;7.80;99.90
29551;DHT22;16488;52.396;10.696;2023-04-16T02:45:41;7.80;99.90
29551;DHT22;16488;52.396;10.696;2023-04-16T02:48:06;7.80;99.90
29551;DHT22;16488;52.396;10.696;2023-04-16T02:50:33;7.80;99.90
29551;DHT22;16488;52.396;10.696;2023-04-16T02:52:58;7.80;99.90
29551;DHT22;16488;52.396;10.696;2023-04-16T02:55:24;7.80;99.90
29551;DHT22;16488;52.396;10.696;2023-04-16T02:57:50;7.80;99.90
29551;DHT22;16488;52.396;10.696;2023-04-16T03:00:17;7.80;99.90
29551;DHT22;16488;52.396;10.696;2023-04-16T03:02:43;7.80;99.90
29551;DHT22;16488;52.396;10.696;2023-04-16T03:05:09;7.80;99.90
29551;DHT22;16488;52.396;10.696;2023-04-16T03:07:35;7.80;99.90
29551;DHT22;16488;52.396;10.696;2023-04-16T03:10:00;7.80;99.90
29551;DHT22;16488;52.396;10.696;2023-04-16T03:12:26;7.80;99.90
29551;DHT22;16488;52.396;10.696;2023-04-16T03:14:51;7.80;99.90
29551;DHT22;16488;52.396;10.696;2023-04-16T03:17:17;7.80;99.90
29551;DHT22;16488;52.396;10.696;2023-04-16T03:19:42;7.80;99.90
29551;DHT22;16488;52.396;10.696;2023-04-16T03:22:08;7.80;99.90
29551;DHT22;16488;52.396;10.696;2023-04-16T03:24:34;7.70;99.90
29551;DHT22;16488;52.396;10.696;2023-04-16T03:26:59;7.70;99.90
29551;DHT22;16488;52.396;10.696;2023-04-16T03:29:26;7.70;99.90
29551;DHT22;16488;52.396;10.696;2023-04-16T03:31:52;7.70;99.90
29551;DHT22;16488;52.396;10.696;2023-04-16T03:34:17;7.70;99.90
29551;DHT22;16488;52.396;10.696;2023-04-16T03:36:43;7.70;99.90
29551;DHT22;16488;52.396;10.696;2023-04-16T03:39:09;7.60;99.90
29551;DHT22;16488;52.396;10.696;2023-04-16T03:41:34;7.70;99.90
29551;DHT22;16488;52.396;10.696;2023-04-16T03:44:00;7.70;99.90
29551;DHT22;16488;52.396;10.696;2023-04-16T03:46:25;7.70;99.90
29551;DHT22;16488;52.396;10.696;2023-04-16T03:48:51;7.70;99.90
29551;DHT22;16488;52.396;10.696;2023-04-16T03:51:16;7.60;99.90
29551;DHT22;16488;52.396;10.696;2023-04-16T03:53:42;7.60;99.90
29551;DHT22;16488;52.396;10.696;2023-04-16T03:56:08;7.60;99.90
29551;DHT22;16488;52.396;10.696;2023-04-16T03:58:33;7.60;99.90
29551;DHT22;16488;52.396;10.696;2023-04-16T04:00:59;7.60;99.90
29551;DHT22;16488;52.396;10.696;2023-04-16T04:03:24;7.60;99.90
29551;DHT22;16488;52.396;10.696;2023-04-16T04:05:50;7.50;99.90
29551;DHT22;16488;52.396;10.696;2023-04-16T04:08:16;7.60;99.90
29551;DHT22;16488;52.396;10.696;2023-04-16T04:10:41;7.60;99.90
29551;DHT22;16488;52.396;10.696;2023-04-16T04:13:07;7.60;99.90
29551;DHT22;16488;52.396;10.696;2023-04-16T04:15:33;7.60;99.90
29551;DHT22;16488;52.396;10.696;2023-04-16T04:17:58;7.60;99.90
29551;DHT22;16488;52.396;10.696;2023-04-16T04:20:24;7.50;99.90
29551;DHT22;16488;52.396;10.696;2023-04-16T04:22:50;7.60;99.90
29551;DHT22;16488;52.396;10.696;2023-04-16T04:25:16;7.60;99.90
29551;DHT22;16488;52.396;10.696;2023-04-16T04:27:42;7.60;99.90
29551;DHT22;16488;52.396;10.696;2023-04-16T04:30:08;7.60;99.90
29551;DHT22;16488;52.396;10.696;2023-04-16T04:32:34;7.60;99.90
29551;DHT22;16488;52.396;10.696;2023-04-16T04:35:01;7.60;99.90
29551;DHT22;16488;52.396;10.696;2023-04-16T04:37:26;7.60;99.90
29551;DHT22;16488;52.396;10.696;2023-04-16T04:39:52;7.60;99.90
29551;DHT22;16488;52.396;10.696;2023-04-16T04:42:19;7.60;99.90
29551;DHT22;16488;52.396;10.696;2023-04-16T04:44:44;7.60;99.90
29551;DHT22;16488;52.396;10.696;2023-04-16T04:47:10;7.60;99.90
29551;DHT22;16488;52.396;10.696;2023-04-16T04:49:36;7.60;99.90
29551;DHT22;16488;52.396;10.696;2023-04-16T04:52:01;7.60;99.90
29551;DHT22;16488;52.396;10.696;2023-04-16T04:54:29;7.60;99.90
29551;DHT22;16488;52.396;10.696;2023-04-16T04:56:54;7.60;99.90
29551;DHT22;16488;52.396;10.696;2023-04-16T04:59:21;7.70;99.90
29551;DHT22;16488;52.396;10.696;2023-04-16T05:01:47;7.60;99.90
29551;DHT22;16488;52.396;10.696;2023-04-16T05:04:12;7.60;99.90
29551;DHT22;16488;52.396;10.696;2023-04-16T05:06:38;7.60;99.90
29551;DHT22;16488;52.396;10.696;2023-04-16T05:09:03;7.60;99.90
29551;DHT22;16488;52.396;10.696;2023-04-16T05:11:29;7.60;99.90
29551;DHT22;16488;52.396;10.696;2023-04-16T05:13:55;7.60;99.90
29551;DHT22;16488;52.396;10.696;2023-04-16T05:16:21;7.60;99.90
29551;DHT22;16488;52.396;10.696;2023-04-16T05:18:46;7.60;99.90
29551;DHT22;16488;52.396;10.696;2023-04-16T05:21:12;7.60;99.90
29551;DHT22;16488;52.396;10.696;2023-04-16T05:23:37;7.60;99.90
29551;DHT22;16488;52.396;10.696;2023-04-16T05:26:03;7.60;99.90
29551;DHT22;16488;52.396;10.696;2023-04-16T05:28:29;7.60;99.90
29551;DHT22;16488;52.396;10.696;2023-04-16T05:30:55;7.60;99.90
29551;DHT22;16488;52.396;10.696;2023-04-16T05:33:20;7.60;99.90
29551;DHT22;16488;52.396;10.696;2023-04-16T05:35:46;7.60;99.90
29551;DHT22;16488;52.396;10.696;2023-04-16T05:38:11;7.70;99.90
29551;DHT22;16488;52.396;10.696;2023-04-16T05:40:37;7.60;99.90
29551;DHT22;16488;52.396;10.696;2023-04-16T05:43:03;7.60;99.90
29551;DHT22;16488;52.396;10.696;2023-04-16T05:45:28;7.60;99.90
29551;DHT22;16488;52.396;10.696;2023-04-16T05:47:55;7.60;99.90
29551;DHT22;16488;52.396;10.696;2023-04-16T05:50:21;7.60;99.90
29551;DHT22;16488;52.396;10.696;2023-04-16T05:52:46;7.60;99.90
29551;DHT22;16488;52.396;10.696;2023-04-16T05:55:12;7.60;99.90
29551;DHT22;16488;52.396;10.696;2023-04-16T05:57:37;7.70;99.90
29551;DHT22;16488;52.396;10.696;2023-04-16T06:00:03;7.70;99.90
29551;DHT22;16488;52.396;10.696;2023-04-16T06:02:29;7.70;99.90
29551;DHT22;16488;52.396;10.696;2023-04-16T06:04:55;7.80;99.90
29551;DHT22;16488;52.396;10.696;2023-04-16T06:07:21;7.80;99.90
29551;DHT22;16488;52.396;10.696;2023-04-16T06:09:46;7.80;99.90
29551;DHT22;16488;52.396;10.696;2023-04-16T06:12:12;7.80;99.90
29551;DHT22;16488;52.396;10.696;2023-04-16T06:14:38;7.90;99.90
29551;DHT22;16488;52.396;10.696;2023-04-16T06:17:03;7.90;99.90
29551;DHT22;16488;52.396;10.696;2023-04-16T06:19:29;7.80;99.90
29551;DHT22;16488;52.396;10.696;2023-04-16T06:21:54;7.80;99.90
29551;DHT22;16488;52.396;10.696;2023-04-16T06:24:21;7.80;99.90
29551;DHT22;16488;52.396;10.696;2023-04-16T06:26:46;7.80;99.90
29551;DHT22;16488;52.396;10.696;2023-04-16T06:29:12;7.90;99.90
29551;DHT22;16488;52.396;10.696;2023-04-16T06:31:37;7.90;99.90
29551;DHT22;16488;52.396;10.696;2023-04-16T06:34:03;7.90;99.90
29551;DHT22;16488;52.396;10.696;2023-04-16T06:36:29;7.80;99.90
29551;DHT22;16488;52.396;10.696;2023-04-16T06:38:55;7.90;99.90
29551;DHT22;16488;52.396;10.696;2023-04-16T06:41:21;7.90;99.90
29551;DHT22;16488;52.396;10.696;2023-04-16T06:43:48;7.90;99.90
29551;DHT22;16488;52.396;10.696;2023-04-16T06:46:13;7.80;99.90
29551;DHT22;16488;52.396;10.696;2023-04-16T06:48:39;7.90;99.90
29551;DHT22;16488;52.396;10.696;2023-04-16T06:51:04;7.80;99.90
29551;DHT22;16488;52.396;10.696;2023-04-16T06:53:30;7.80;99.90
29551;DHT22;16488;52.396;10.696;2023-04-16T06:55:56;7.90;99.90
29551;DHT22;16488;52.396;10.696;2023-04-16T06:58:21;7.90;99.90
29551;DHT22;16488;52.396;10.696;2023-04-16T07:00:47;8.00;99.90
29551;DHT22;16488;52.396;10.696;2023-04-16T07:03:13;8.00;99.90
29551;DHT22;16488;52.396;10.696;2023-04-16T07:05:38;8.00;99.90
29551;DHT22;16488;52.396;10.696;2023-04-16T07:08:04;8.00;99.90
29551;DHT22;16488;52.396;10.696;2023-04-16T07:10:30;7.90;99.90
29551;DHT22;16488;52.396;10.696;2023-04-16T07:12:56;8.00;99.90
29551;DHT22;16488;52.396;10.696;2023-04-16T07:15:21;8.00;99.90
29551;DHT22;16488;52.396;10.696;2023-04-16T07:17:47;8.00;99.90
29551;DHT22;16488;52.396;10.696;2023-04-16T07:20:12;8.00;99.90
29551;DHT22;16488;52.396;10.696;2023-04-16T07:22:38;8.00;99.90
29551;DHT22;16488;52.396;10.696;2023-04-16T07:25:04;8.00;99.90
29551;DHT22;16488;52.396;10.696;2023-04-16T07:27:30;8.00;99.90
29551;DHT22;16488;52.396;10.696;2023-04-16T07:29:55;7.90;99.90
29551;DHT22;16488;52.396;10.696;2023-04-16T07:32:21;7.90;99.90
29551;DHT22;16488;52.396;10.696;2023-04-16T07:34:47;7.90;99.90
29551;DHT22;16488;52.396;10.696;2023-04-16T07:37:12;7.90;99.90
29551;DHT22;16488;52.396;10.696;2023-04-16T07:39:38;7.90;99.90
29551;DHT22;16488;52.396;10.696;2023-04-16T07:42:03;7.80;99.90
29551;DHT22;16488;52.396;10.696;2023-04-16T07:44:30;7.80;99.90
29551;DHT22;16488;52.396;10.696;2023-04-16T07:46:55;7.80;99.90
29551;DHT22;16488;52.396;10.696;2023-04-16T07:49:21;7.80;99.90
29551;DHT22;16488;52.396;10.696;2023-04-16T07:51:46;7.80;99.90
29551;DHT22;16488;52.396;10.696;2023-04-16T07:54:12;7.80;99.90
29551;DHT22;16488;52.396;10.696;2023-04-16T07:56:37;7.80;99.90
29551;DHT22;16488;52.396;10.696;2023-04-16T07:59:03;7.80;99.90
29551;DHT22;16488;52.396;10.696;2023-04-16T08:01:29;7.80;99.90
29551;DHT22;16488;52.396;10.696;2023-04-16T08:03:54;7.80;99.90
29551;DHT22;16488;52.396;10.696;2023-04-16T08:06:20;7.80;99.90
29551;DHT22;16488;52.396;10.696;2023-04-16T08:08:46;7.80;99.90
29551;DHT22;16488;52.396;10.696;2023-04-16T08:11:11;7.80;99.90
29551;DHT22;16488;52.396;10.696;2023-04-16T08:13:37;7.80;99.90
29551;DHT22;16488;52.396;10.696;2023-04-16T08:16:03;7.70;99.90
29551;DHT22;16488;52.396;10.696;2023-04-16T08:18:28;7.80;99.90
29551;DHT22;16488;52.396;10.696;2023-04-16T08:20:54;7.80;99.90
29551;DHT22;16488;52.396;10.696;2023-04-16T08:23:20;7.80;99.90
29551;DHT22;16488;52.396;10.696;2023-04-16T08:25:46;7.80;99.90
29551;DHT22;16488;52.396;10.696;2023-04-16T08:28:12;7.80;99.90
29551;DHT22;16488;52.396;10.696;2023-04-16T08:30:38;7.80;99.90
29551;DHT22;16488;52.396;10.696;2023-04-16T08:33:03;7.80;99.90
29551;DHT22;16488;52.396;10.696;2023-04-16T08:35:29;7.90;99.90
29551;DHT22;16488;52.396;10.696;2023-04-16T08:37:54;7.80;99.90
29551;DHT22;16488;52.396;10.696;2023-04-16T08:40:26;7.80;99.90
29551;DHT22;16488;52.396;10.696;2023-04-16T08:42:54;7.80;99.90
29551;DHT22;16488;52.396;10.696;2023-04-16T08:45:20;7.80;99.90
29551;DHT22;16488;52.396;10.696;2023-04-16T08:47:49;7.90;99.90
29551;DHT22;16488;52.396;10.696;2023-04-16T08:50:19;7.90;99.90
29551;DHT22;16488;52.396;10.696;2023-04-16T08:52:55;7.90;99.90
29551;DHT22;16488;52.396;10.696;2023-04-16T08:55:27;7.90;99.90
29551;DHT22;16488;52.396;10.696;2023-04-16T08:57:57;8.00;99.90
29551;DHT22;16488;52.396;10.696;2023-04-16T09:00:23;7.90;99.90
29551;DHT22;16488;52.396;10.696;2023-04-16T09:02:50;7.90;99.90
29551;DHT22;16488;52.396;10.696;2023-04-16T09:05:16;8.00;99.90
29551;DHT22;16488;52.396;10.696;2023-04-16T09:07:44;8.00;99.90
29551;DHT22;16488;52.396;10.696;2023-04-16T09:10:11;8.10;99.90
29551;DHT22;16488;52.396;10.696;2023-04-16T09:12:37;8.10;99.90
29551;DHT22;16488;52.396;10.696;2023-04-16T09:15:05;8.10;99.90
29551;DHT22;16488;52.396;10.696;2023-04-16T09:17:31;8.10;99.90
29551;DHT22;16488;52.396;10.696;2023-04-16T09:19:56;8.10;99.90
29551;DHT22;16488;52.396;10.696;2023-04-16T09:22:22;8.10;99.90
29551;DHT22;16488;52.396;10.696;2023-04-16T09:24:47;8.20;99.90
29551;DHT22;16488;52.396;10.696;2023-04-16T09:27:13;8.20;99.90
29551;DHT22;16488;52.396;10.696;2023-04-16T09:29:40;8.20;99.90
29551;DHT22;16488;52.396;10.696;2023-04-16T09:32:07;8.20;99.90
29551;DHT22;16488;52.396;10.696;2023-04-16T09:34:34;8.20;99.90
29551;DHT22;16488;52.396;10.696;2023-04-16T09:37:16;8.30;99.90
29551;DHT22;16488;52.396;10.696;2023-04-16T09:39:43;8.30;99.90
29551;DHT22;16488;52.396;10.696;2023-04-16T09:42:10;8.30;99.90
29551;DHT22;16488;52.396;10.696;2023-04-16T09:44:36;8.30;99.90
29551;DHT22;16488;52.396;10.696;2023-04-16T09:47:06;8.30;99.90
29551;DHT22;16488;52.396;10.696;2023-04-16T09:49:40;8.30;99.90
29551;DHT22;16488;52.396;10.696;2023-04-16T09:52:13;8.30;99.90
29551;DHT22;16488;52.396;10.696;2023-04-16T09:54:50;8.40;99.90
29551;DHT22;16488;52.396;10.696;2023-04-16T09:57:20;8.40;99.90
29551;DHT22;16488;52.396;10.696;2023-04-16T10:00:08;8.50;99.90
29551;DHT22;16488;52.396;10.696;2023-04-16T10:02:33;8.40;99.90
29551;DHT22;16488;52.396;10.696;2023-04-16T10:05:00;8.40;99.90
29551;DHT22;16488;52.396;10.696;2023-04-16T10:07:27;8.50;99.90
29551;DHT22;16488;52.396;10.696;2023-04-16T10:09:53;8.50;99.90
29551;DHT22;16488;52.396;10.696;2023-04-16T10:12:20;8.50;99.90
29551;DHT22;16488;52.396;10.696;2023-04-16T10:14:46;8.50;99.90
29551;DHT22;16488;52.396;10.696;2023-04-16T10:17:12;8.50;99.90
29551;DHT22;16488;52.396;10.696;2023-04-16T10:19:38;8.60;99.90
29551;DHT22;16488;52.396;10.696;2023-04-16T10:22:04;8.60;99.90
29551;DHT22;16488;52.396;10.696;2023-04-16T10:24:31;8.70;99.90
29551;DHT22;16488;52.396;10.696;2023-04-16T10:26:58;8.70;99.90
29551;DHT22;16488;52.396;10.696;2023-04-16T10:29:24;8.80;99.90
29551;DHT22;16488;52.396;10.696;2023-04-16T10:31:51;8.70;99.90
29551;DHT22;16488;52.396;10.696;2023-04-16T10:34:19;8.80;99.90
29551;DHT22;16488;52.396;10.696;2023-04-16T10:36:49;8.80;99.90
29551;DHT22;16488;52.396;10.696;2023-04-16T10:39:23;8.90;99.90
29551;DHT22;16488;52.396;10.696;2023-04-16T10:41:49;9.00;99.90
29551;DHT22;16488;52.396;10.696;2023-04-16T10:44:17;9.10;99.90
29551;DHT22;16488;52.396;10.696;2023-04-16T10:46:46;9.10;99.90
29551;DHT22;16488;52.396;10.696;2023-04-16T10:49:22;9.10;99.90
29551;DHT22;16488;52.396;10.696;2023-04-16T10:54:26;9.10;99.90
29551;DHT22;16488;52.396;10.696;2023-04-16T10:56:53;9.20;99.90
29551;DHT22;16488;52.396;10.696;2023-04-16T10:59:21;9.30;99.90
29551;DHT22;16488;52.396;10.696;2023-04-16T11:01:52;9.30;99.90
29551;DHT22;16488;52.396;10.696;2023-04-16T11:09:43;9.90;99.90
29551;DHT22;16488;52.396;10.696;2023-04-16T11:12:16;10.00;99.90
29551;DHT22;16488;52.396;10.696;2023-04-16T11:14:57;10.20;99.90
29551;DHT22;16488;52.396;10.696;2023-04-16T11:17:29;10.10;99.90
29551;DHT22;16488;52.396;10.696;2023-04-16T11:19:55;10.10;99.90
29551;DHT22;16488;52.396;10.696;2023-04-16T11:22:21;10.00;99.90
29551;DHT22;16488;52.396;10.696;2023-04-16T11:24:53;10.00;99.90
29551;DHT22;16488;52.396;10.696;2023-04-16T11:27:18;10.00;99.90
29551;DHT22;16488;52.396;10.696;2023-04-16T11:29:44;10.00;99.90
29551;DHT22;16488;52.396;10.696;2023-04-16T11:32:10;10.00;99.90
29551;DHT22;16488;52.396;10.696;2023-04-16T11:34:45;10.00;99.90
29551;DHT22;16488;52.396;10.696;2023-04-16T11:37:10;10.10;99.90
29551;DHT22;16488;52.396;10.696;2023-04-16T11:39:49;10.30;99.90
29551;DHT22;16488;52.396;10.696;2023-04-16T11:42:19;10.30;99.90
29551;DHT22;16488;52.396;10.696;2023-04-16T11:44:45;10.40;99.90
29551;DHT22;16488;52.396;10.696;2023-04-16T11:47:11;10.40;99.90
29551;DHT22;16488;52.396;10.696;2023-04-16T11:49:38;10.50;99.90
29551;DHT22;16488;52.396;10.696;2023-04-16T11:52:03;10.50;99.90
29551;DHT22;16488;52.396;10.696;2023-04-16T11:54:29;10.50;99.90
29551;DHT22;16488;52.396;10.696;2023-04-16T11:56:59;10.40;99.90
29551;DHT22;16488;52.396;10.696;2023-04-16T11:59:25;10.40;99.90
29551;DHT22;16488;52.396;10.696;2023-04-16T12:01:53;10.50;99.90
29551;DHT22;16488;52.396;10.696;2023-04-16T12:04:22;10.50;99.90
29551;DHT22;16488;52.396;10.696;2023-04-16T12:07:08;10.70;99.90
29551;DHT22;16488;52.396;10.696;2023-04-16T12:09:35;10.70;99.90
29551;DHT22;16488;52.396;10.696;2023-04-16T12:12:01;10.80;99.90
29551;DHT22;16488;52.396;10.696;2023-04-16T12:14:27;10.80;99.90
29551;DHT22;16488;52.396;10.696;2023-04-16T12:16:53;10.90;99.90
29551;DHT22;16488;52.396;10.696;2023-04-16T12:19:19;10.80;99.90
29551;DHT22;16488;52.396;10.696;2023-04-16T12:21:45;10.90;99.90
29551;DHT22;16488;52.396;10.696;2023-04-16T12:24:14;11.00;99.90
29551;DHT22;16488;52.396;10.696;2023-04-16T12:26:42;11.00;99.90
29551;DHT22;16488;52.396;10.696;2023-04-16T12:31:42;11.00;99.90
29551;DHT22;16488;52.396;10.696;2023-04-16T12:34:08;11.00;99.90
29551;DHT22;16488;52.396;10.696;2023-04-16T12:36:35;11.00;99.90
29551;DHT22;16488;52.396;10.696;2023-04-16T12:39:00;11.00;99.90
29551;DHT22;16488;52.396;10.696;2023-04-16T12:41:28;11.10;99.90
29551;DHT22;16488;52.396;10.696;2023-04-16T12:44:08;11.20;99.90
29551;DHT22;16488;52.396;10.696;2023-04-16T12:46:38;11.40;99.90
29551;DHT22;16488;52.396;10.696;2023-04-16T12:49:05;11.40;99.90
29551;DHT22;16488;52.396;10.696;2023-04-16T12:51:31;11.30;99.90
29551;DHT22;16488;52.396;10.696;2023-04-16T12:53:57;11.40;99.90
29551;DHT22;16488;52.396;10.696;2023-04-16T12:56:23;11.70;99.90
29551;DHT22;16488;52.396;10.696;2023-04-16T12:58:49;11.70;99.90
29551;DHT22;16488;52.396;10.696;2023-04-16T13:01:19;11.70;99.90
29551;DHT22;16488;52.396;10.696;2023-04-16T13:03:45;11.80;99.90
29551;DHT22;16488;52.396;10.696;2023-04-16T13:06:12;12.10;99.90
29551;DHT22;16488;52.396;10.696;2023-04-16T13:08:38;12.10;99.90
29551;DHT22;16488;52.396;10.696;2023-04-16T13:11:04;12.20;99.90
29551;DHT22;16488;52.396;10.696;2023-04-16T13:13:30;12.10;99.90
29551;DHT22;16488;52.396;10.696;2023-04-16T13:15:56;12.20;99.90
29551;DHT22;16488;52.396;10.696;2023-04-16T13:18:22;12.20;99.90
29551;DHT22;16488;52.396;10.696;2023-04-16T13:20:47;12.10;99.90
29551;DHT22;16488;52.396;10.696;2023-04-16T13:23:13;12.20;99.90
29551;DHT22;16488;52.396;10.696;2023-04-16T13:25:39;12.20;99.90
29551;DHT22;16488;52.396;10.696;2023-04-16T13:28:04;12.10;99.90
29551;DHT22;16488;52.396;10.696;2023-04-16T13:30:30;12.10;99.90
29551;DHT22;16488;52.396;10.696;2023-04-16T13:32:57;12.20;99.90
29551;DHT22;16488;52.396;10.696;2023-04-16T13:35:23;12.30;99.90
29551;DHT22;16488;52.396;10.696;2023-04-16T13:37:49;12.30;99.90
29551;DHT22;16488;52.396;10.696;2023-04-16T13:40:14;12.30;99.90
29551;DHT22;16488;52.396;10.696;2023-04-16T13:42:40;12.30;99.90
29551;DHT22;16488;52.396;10.696;2023-04-16T13:45:07;12.30;99.90
29551;DHT22;16488;52.396;10.696;2023-04-16T13:47:34;12.40;99.90
29551;DHT22;16488;52.396;10.696;2023-04-16T13:49:59;12.50;99.90
29551;DHT22;16488;52.396;10.696;2023-04-16T13:52:25;12.60;99.90
29551;DHT22;16488;52.396;10.696;2023-04-16T13:54:50;12.70;99.90
29551;DHT22;16488;52.396;10.696;2023-04-16T13:57:16;12.80;99.90
29551;DHT22;16488;52.396;10.696;2023-04-16T13:59:42;12.70;99.90
29551;DHT22;16488;52.396;10.696;2023-04-16T14:02:09;12.60;99.90
29551;DHT22;16488;52.396;10.696;2023-04-16T14:04:35;12.50;99.90
29551;DHT22;16488;52.396;10.696;2023-04-16T14:07:01;12.50;99.90
29551;DHT22;16488;52.396;10.696;2023-04-16T14:09:26;12.20;99.90
29551;DHT22;16488;52.396;10.696;2023-04-16T14:11:52;12.10;99.90
29551;DHT22;16488;52.396;10.696;2023-04-16T14:14:18;12.10;99.90
29551;DHT22;16488;52.396;10.696;2023-04-16T14:16:43;11.90;99.90
29551;DHT22;16488;52.396;10.696;2023-04-16T14:19:09;11.80;99.90
29551;DHT22;16488;52.396;10.696;2023-04-16T14:21:35;11.70;99.90
29551;DHT22;16488;52.396;10.696;2023-04-16T14:24:01;11.60;99.90
29551;DHT22;16488;52.396;10.696;2023-04-16T14:26:27;11.60;99.90
29551;DHT22;16488;52.396;10.696;2023-04-16T14:28:52;11.50;99.90
29551;DHT22;16488;52.396;10.696;2023-04-16T14:31:18;11.50;99.90
29551;DHT22;16488;52.396;10.696;2023-04-16T14:33:44;11.40;99.90
29551;DHT22;16488;52.396;10.696;2023-04-16T14:36:10;11.40;99.90
29551;DHT22;16488;52.396;10.696;2023-04-16T14:38:36;11.40;99.90
29551;DHT22;16488;52.396;10.696;2023-04-16T14:41:01;11.40;99.90
29551;DHT22;16488;52.396;10.696;2023-04-16T14:43:27;11.50;99.90
29551;DHT22;16488;52.396;10.696;2023-04-16T14:45:53;11.50;99.90
29551;DHT22;16488;52.396;10.696;2023-04-16T14:48:18;11.40;99.90
29551;DHT22;16488;52.396;10.696;2023-04-16T14:50:44;11.50;99.90
29551;DHT22;16488;52.396;10.696;2023-04-16T14:53:10;11.40;99.90
29551;DHT22;16488;52.396;10.696;2023-04-16T14:55:36;11.50;99.90
29551;DHT22;16488;52.396;10.696;2023-04-16T14:58:02;11.50;99.90
29551;DHT22;16488;52.396;10.696;2023-04-16T15:00:28;11.50;99.90
29551;DHT22;16488;52.396;10.696;2023-04-16T15:02:54;11.60;99.90
29551;DHT22;16488;52.396;10.696;2023-04-16T15:05:20;11.60;99.90
29551;DHT22;16488;52.396;10.696;2023-04-16T15:07:46;11.60;99.90
29551;DHT22;16488;52.396;10.696;2023-04-16T15:10:11;11.60;99.90
29551;DHT22;16488;52.396;10.696;2023-04-16T15:12:37;11.70;99.90
29551;DHT22;16488;52.396;10.696;2023-04-16T15:15:05;11.70;99.90
29551;DHT22;16488;52.396;10.696;2023-04-16T15:17:31;11.90;99.90
29551;DHT22;16488;52.396;10.696;2023-04-16T15:19:57;11.90;99.90
29551;DHT22;16488;52.396;10.696;2023-04-16T15:22:22;11.90;99.90
29551;DHT22;16488;52.396;10.696;2023-04-16T15:24:48;11.90;99.90
29551;DHT22;16488;52.396;10.696;2023-04-16T15:27:15;11.90;99.90
29551;DHT22;16488;52.396;10.696;2023-04-16T15:29:42;11.90;99.90
29551;DHT22;16488;52.396;10.696;2023-04-16T15:32:11;11.90;99.90